Time;durP1;ratioP1;P1;durP2;ratioP2;P2;SDS_P1;SDS_P2;PMS_P1;PMS_P2;Temp;Humidity;BMP_temperature;BMP_pressure;BME280_temperature;BME280_humidity;BME280_pressure;Samples;Min_cycle;Max_cycle;Signal;HPM_P1;HPM_P2
2021/05/26 00:04:00;;;;;;;12.33;4.83;;;9.20;24.80;;;-143.32;100.00;53404.44;4897282;29;20472;-90
2021/05/26 00:06:47;;;;;;;6.43;3.67;;;9.20;1.00;;;-143.32;100.00;53440.78;4902441;29;20502;-92
2021/05/26 00:09:22;;;;;;;9.93;3.90;;;9.30;1.00;;;-143.32;100.00;53438.78;4918468;29;20454;-90
2021/05/26 00:11:49;;;;;;;9.00;3.63;;;9.30;1.00;;;-143.32;100.00;53469.06;4917882;29;20442;-88
2021/05/26 00:14:24;;;;;;;11.03;3.73;;;9.30;1.00;;;-143.32;100.00;53418.56;4918268;29;20447;-89
2021/05/26 00:17:03;;;;;;;11.43;3.90;;;9.30;1.00;;;-143.32;100.00;53456.94;4917808;29;20435;-90
2021/05/26 00:19:42;;;;;;;10.00;4.20;;;9.30;1.00;;;-143.32;100.00;53448.88;4917836;29;20469;-89
2021/05/26 00:22:17;;;;;;;8.20;3.83;;;9.40;1.00;;;-143.32;100.00;53444.84;4917170;29;20463;-89
2021/05/26 00:24:57;;;;;;;16.70;3.37;;;9.40;1.00;;;-143.32;100.00;53448.88;4917639;29;20426;-90
2021/05/26 00:27:33;;;;;;;7.13;2.83;;;9.50;1.00;;;-143.32;100.00;53448.88;4917544;29;20474;-90
2021/05/26 00:30:04;;;;;;;7.10;3.10;;;9.20;1.00;;;-143.32;100.00;53471.09;4918314;29;20909;-90
2021/05/26 00:32:54;;;;;;;5.20;2.90;;;9.30;1.00;;;-143.32;100.00;53481.19;4917146;29;20462;-89
2021/05/26 00:43:53;;;;;;;7.27;3.83;;;9.00;1.00;;;-143.32;100.00;53477.16;4862134;29;20449;-89
2021/05/26 00:46:28;;;;;;;10.13;3.87;;;9.00;1.00;;;-143.32;100.00;53483.22;4863023;29;20485;-89
2021/05/26 00:49:34;;;;;;;7.83;3.63;;;8.90;1.00;;;-143.32;100.00;53481.19;4880631;29;20466;-89
2021/05/26 00:56:49;;;;;;;11.93;4.07;;;8.80;33.00;;;-143.32;100.00;53444.84;4863303;29;20982;-88
2021/05/26 01:07:56;;;;;;;8.83;4.17;;;9.00;1.00;;;-143.32;100.00;53473.09;4863132;29;20567;-88
2021/05/26 01:15:01;;;;;;;7.47;4.33;;;9.00;33.40;;;-143.32;100.00;53469.06;4842541;29;20458;-92
2021/05/26 01:17:57;;;;;;;9.57;4.70;;;9.00;19.70;;;-143.32;100.00;53485.22;4850792;29;20497;-89
2021/05/26 01:21:09;;;;;;;7.73;4.03;;;9.00;12.80;;;-143.32;100.00;53446.84;4919033;29;20458;-90
2021/05/26 01:24:39;;;;;;;12.07;4.80;;;9.00;58.60;;;-143.32;100.00;53471.09;4920843;29;20435;-89
2021/05/26 01:31:38;;;;;;;6.90;3.50;;;9.00;34.00;;;-143.32;100.00;53477.16;4880969;29;20485;-90
2021/05/26 01:45:41;;;;;;;16.43;4.70;;;9.00;11.90;;;-143.32;100.00;53461.00;4920168;29;20458;-91
2021/05/26 01:48:49;;;;;;;10.57;4.57;;;9.00;8.90;;;-143.32;100.00;53444.84;4920072;29;20482;-89
2021/05/26 01:52:37;;;;;;;21.73;4.93;;;9.00;10.60;;;-143.32;100.00;53412.53;4920499;29;20474;-87
2021/05/26 02:00:27;;;;;;;13.93;4.77;;;9.10;11.20;;;-143.32;100.00;53440.78;4920177;29;20419;-88
2021/05/26 02:03:20;;;;;;;12.07;4.37;;;9.10;11.30;;;-143.32;100.00;53469.06;4853775;29;20458;-88
2021/05/26 02:05:52;;;;;;;15.80;4.60;;;9.20;2.80;;;-143.32;100.00;53452.91;4920688;29;20906;-90
2021/05/26 02:08:19;;;;;;;17.07;5.47;;;9.20;16.70;;;-143.32;100.00;53432.72;4920292;29;20434;-90
2021/05/26 02:15:33;;;;;;;9.60;5.00;;;9.20;1.00;;;-143.32;100.00;53450.88;4862112;29;20529;-90
2021/05/26 02:18:34;;;;;;;10.63;5.50;;;9.20;1.00;;;-143.32;100.00;53412.53;4882265;29;20463;-90
2021/05/26 02:21:26;;;;;;;11.53;5.90;;;9.30;1.00;;;-143.32;100.00;53428.69;4919542;29;20436;-91
2021/05/26 02:24:14;;;;;;;15.57;5.10;;;9.30;1.00;;;-143.32;100.00;53446.84;4919406;29;20446;-89
2021/05/26 02:26:48;;;;;;;16.00;6.37;;;9.30;1.00;;;-143.32;100.00;53461.00;4920290;29;20546;-90
2021/05/26 02:29:18;;;;;;;14.10;5.90;;;9.30;1.00;;;-143.32;100.00;53406.47;4920667;29;20459;-89
2021/05/26 02:31:47;;;;;;;19.27;7.37;;;9.30;14.40;;;-143.32;100.00;53424.63;4919664;29;20446;-90
2021/05/26 02:34:26;;;;;;;16.13;6.07;;;9.30;55.80;;;-143.32;100.00;53428.69;4919729;29;20463;-89
2021/05/26 02:36:54;;;;;;;13.77;6.17;;;9.30;22.80;;;-143.32;100.00;53406.47;4919346;29;20522;-88
2021/05/26 02:39:21;;;;;;;18.73;6.70;;;9.30;52.10;;;-143.32;100.00;53410.50;4919598;29;20796;-90
2021/05/26 02:41:50;;;;;;;17.07;6.10;;;9.40;25.90;;;-143.32;100.00;53426.66;4919520;29;20510;-90
2021/05/26 02:44:26;;;;;;;19.73;5.80;;;9.40;25.40;;;-143.32;100.00;53418.56;4919499;29;20455;-90
2021/05/26 02:46:56;;;;;;;16.83;5.30;;;9.40;1.00;;;-143.32;100.00;53384.25;4919478;29;20467;-89
2021/05/26 02:49:26;;;;;;;9.70;4.97;;;9.50;1.00;;;-143.32;100.00;53404.44;4919351;29;20459;-91
2021/05/26 02:52:12;;;;;;;14.90;5.13;;;9.50;1.00;;;-143.32;100.00;53380.19;4919969;29;20478;-87
2021/05/26 02:54:50;;;;;;;13.00;4.67;;;9.50;1.00;;;-143.32;100.00;53386.25;4919912;29;20454;-91
2021/05/26 02:57:20;;;;;;;22.90;5.60;;;9.50;1.00;;;-143.32;100.00;53370.09;4919232;29;20981;-89
2021/05/26 02:59:47;;;;;;;19.90;5.27;;;9.50;1.00;;;-143.32;100.00;53402.41;4919222;29;20534;-89
2021/05/26 03:02:24;;;;;;;12.03;4.90;;;9.50;1.00;;;-143.32;100.00;53390.31;4918973;29;20493;-89
2021/05/26 03:05:13;;;;;;;15.87;5.13;;;9.50;1.00;;;-143.32;100.00;53436.75;4918748;29;20451;-89
2021/05/26 03:07:45;;;;;;;16.77;5.80;;;9.50;1.00;;;-143.32;100.00;53398.38;4919005;29;20969;-89
2021/05/26 03:10:19;;;;;;;19.43;5.73;;;9.50;1.00;;;-143.32;100.00;53424.63;4919109;29;20482;-92
2021/05/26 03:13:08;;;;;;;19.30;5.20;;;9.50;1.00;;;-143.32;100.00;53416.56;4918853;29;20447;-89
2021/05/26 03:20:13;;;;;;;17.43;6.23;;;9.50;1.00;;;-143.32;100.00;53416.56;4860863;29;20429;-88
2021/05/26 03:23:16;;;;;;;26.10;6.53;;;9.50;1.00;;;-143.32;100.00;53402.41;4876559;29;20462;-91
2021/05/26 03:28:42;;;;;;;21.90;7.53;;;9.50;1.00;;;-143.32;100.00;53432.72;4918099;29;20459;-88
2021/05/26 03:31:37;;;;;;;21.73;6.43;;;9.60;1.00;;;-143.32;100.00;53384.25;4918988;29;20447;-89
2021/05/26 03:34:34;;;;;;;21.87;7.70;;;9.50;1.00;;;-143.32;100.00;53392.31;4918848;29;20488;-90
2021/05/26 03:37:07;;;;;;;19.97;7.20;;;9.60;1.00;;;-143.32;100.00;53424.63;4918637;29;20514;-91
2021/05/26 03:39:50;;;;;;;24.20;6.17;;;9.50;1.00;;;-143.32;100.00;53392.31;4918698;29;20942;-90
2021/05/26 04:12:20;;;;;;;20.80;6.67;;;9.50;1.00;;;-143.32;100.00;53432.72;4769456;30;20434;-92
2021/05/26 05:08:10;;;;;;;13.73;4.90;;;9.70;1.00;;;-143.32;100.00;53370.09;4750682;30;20499;-89
2021/05/26 05:25:40;;;;;;;19.10;5.00;;;9.80;1.00;;;-143.32;100.00;53386.25;4804108;29;20535;-92
2021/05/26 06:35:29;;;;;;;5.83;3.90;;;10.90;1.00;;;-143.32;100.00;53337.78;6077835;23;20495;-90
2021/05/26 06:37:59;;;;;;;9.73;3.57;;;11.10;38.80;;;-143.32;100.00;53364.03;6116544;23;20406;-89
2021/05/26 06:40:25;;;;;;;7.00;3.30;;;11.00;1.00;;;-143.32;100.00;53398.38;6163956;23;20465;-91
2021/05/26 06:42:55;;;;;;;9.83;3.20;;;10.90;23.70;;;-143.32;100.00;53380.19;6163830;23;20927;-89
2021/05/26 06:45:23;;;;;;;8.77;3.47;;;10.90;69.40;;;-143.32;100.00;53339.81;6164546;23;20409;-91
2021/05/26 06:47:49;;;;;;;7.67;3.70;;;11.00;78.30;;;-143.32;99.82;53319.59;6164718;23;20773;-91
2021/05/26 06:50:17;;;;;;;14.30;3.00;;;11.20;1.00;;;-143.32;99.17;53343.84;6165596;23;20414;-94
2021/05/26 06:52:50;;;;;;;9.70;3.80;;;11.30;1.00;;;-143.32;99.25;53331.72;6182306;23;20454;-94
2021/05/26 06:55:24;;;;;;;9.63;3.90;;;11.20;1.00;;;-143.32;99.11;53347.88;6186050;23;20394;-93
2021/05/26 06:57:51;;;;;;;9.83;3.93;;;11.30;1.00;;;-143.32;98.99;53317.59;6174506;23;20393;-91
2021/05/26 07:00:19;;;;;;;7.10;3.33;;;11.30;1.00;;;-143.32;98.58;53347.88;6164589;23;20406;-92
2021/05/26 07:02:46;;;;;;;7.47;4.10;;;11.40;1.00;;;-143.32;98.46;53345.88;6164552;23;20722;-91
2021/05/26 07:05:13;;;;;;;13.30;4.27;;;11.40;1.00;;;-143.32;98.40;53333.75;6160090;23;20407;-90
2021/05/26 07:07:40;;;;;;;9.17;4.33;;;11.40;1.00;;;-143.32;98.33;53319.59;6158104;23;20407;-89
2021/05/26 07:10:08;;;;;;;11.57;4.60;;;11.50;1.00;;;-143.32;97.58;53307.50;6158514;23;20406;-89
2021/05/26 07:12:34;;;;;;;9.27;3.70;;;11.60;1.00;;;-143.32;96.82;53285.28;6158061;23;20399;-91
2021/05/26 07:15:01;;;;;;;14.50;4.30;;;11.80;1.00;;;-143.32;94.41;53335.78;6157967;23;20430;-92
2021/05/26 07:18:10;;;;;;;11.10;4.77;;;11.90;99.90;;;-143.32;94.03;53343.84;6157952;23;20734;-90
2021/05/26 07:24:19;;;;;;;7.90;3.60;;;12.20;99.90;;;-143.32;92.32;53305.47;6157798;23;20446;-92
2021/05/26 07:26:46;;;;;;;6.57;3.13;;;12.50;99.90;;;-143.32;92.00;53287.28;6158097;23;20407;-90
2021/05/26 07:29:13;;;;;;;7.17;3.20;;;12.70;99.90;;;-143.32;90.30;53240.84;6157842;23;20941;-91
2021/05/26 07:31:41;;;;;;;6.50;2.67;;;13.00;99.90;;;-143.32;89.73;53327.69;6157905;23;20447;-92
2021/05/26 07:34:08;;;;;;;6.60;2.90;;;13.20;79.20;;;-143.32;88.80;53259.03;6157469;23;20453;-92
2021/05/26 07:36:35;;;;;;;4.33;2.83;;;13.30;52.10;;;-143.32;87.85;53331.72;6157803;23;20711;-91
2021/05/26 07:39:03;;;;;;;5.37;2.90;;;13.30;1.00;;;-143.32;88.18;53297.41;6157860;23;20466;-91
2021/05/26 07:41:29;;;;;;;6.13;2.60;;;13.40;1.00;;;-143.32;87.67;53234.78;6158135;23;20416;-89
2021/05/26 07:43:56;;;;;;;3.50;2.20;;;13.70;1.00;;;-143.32;85.40;53226.72;6157502;23;20408;-90
2021/05/26 07:46:23;;;;;;;6.57;2.70;;;14.10;1.00;;;-143.32;83.98;53242.88;6157342;23;20418;-89
2021/05/26 07:48:52;;;;;;;6.83;2.37;;;14.40;1.00;;;-143.32;81.29;53194.41;6158296;23;20407;-92
2021/05/26 07:51:27;;;;;;;3.80;2.53;;;15.00;99.90;;;-143.32;80.41;53285.28;6161581;23;20407;-92
2021/05/26 07:53:54;;;;;;;7.00;3.30;;;15.10;99.90;;;-143.32;82.07;53295.38;6163844;23;20465;-92
2021/05/26 07:56:22;;;;;;;4.07;2.50;;;14.70;99.90;;;-143.32;82.12;53281.25;6159436;23;20918;-93
2021/05/26 07:58:50;;;;;;;4.33;2.13;;;14.50;99.90;;;-143.32;80.87;53254.97;6160086;23;20395;-95
2021/05/26 08:01:16;;;;;;;8.37;3.00;;;14.70;99.90;;;-143.32;82.64;53297.41;6160201;23;20402;-93
2021/05/26 08:03:43;;;;;;;5.73;2.70;;;14.60;99.90;;;-143.32;84.60;53311.53;6161754;23;20411;-93
2021/05/26 08:06:12;;;;;;;6.47;3.00;;;14.30;1.00;;;-143.32;85.50;53307.50;6158534;23;20406;-89
2021/05/26 08:08:39;;;;;;;3.90;2.40;;;14.10;1.00;;;-143.32;84.99;53295.38;6157214;23;20445;-90
2021/05/26 08:11:07;;;;;;;6.00;3.10;;;14.10;1.00;;;-143.32;84.62;53279.22;6157072;23;20438;-89
2021/05/26 08:13:33;;;;;;;3.90;2.87;;;14.20;1.00;;;-143.32;84.98;53297.41;6156679;23;20749;-88
2021/05/26 08:16:00;;;;;;;3.17;2.87;;;14.30;1.00;;;-143.32;84.13;53319.59;6156430;23;20426;-88
2021/05/26 08:18:27;;;;;;;7.50;3.80;;;14.20;1.00;;;-143.32;82.49;53351.94;6156568;23;20418;-90
2021/05/26 08:20:55;;;;;;;8.63;3.40;;;14.20;99.90;;;-143.32;82.62;53337.78;6156960;23;20431;-89
2021/05/26 08:23:23;;;;;;;4.23;3.40;;;14.40;1.00;;;-143.32;81.26;53305.47;6156836;23;20403;-90
2021/05/26 08:25:50;;;;;;;10.00;3.33;;;14.40;99.90;;;-143.32;81.25;53299.41;6156852;23;20411;-89
2021/05/26 08:28:17;;;;;;;8.17;3.93;;;14.50;99.90;;;-143.32;79.10;53319.59;6156637;23;20406;-88
2021/05/26 08:30:45;;;;;;;7.40;3.50;;;14.80;99.90;;;-143.32;80.31;53238.81;6156520;23;20847;-89
2021/05/26 08:33:12;;;;;;;6.87;3.27;;;15.00;99.90;;;-143.32;78.17;53319.59;6156797;23;21028;-89
2021/05/26 08:35:38;;;;;;;4.47;2.90;;;14.90;99.90;;;-143.32;79.47;53325.66;6157190;23;20432;-89
2021/05/26 08:38:05;;;;;;;9.13;3.00;;;14.70;99.90;;;-143.32;78.39;53349.91;6156682;23;20866;-90
2021/05/26 08:40:33;;;;;;;6.60;3.70;;;14.70;99.90;;;-143.32;80.19;53335.78;6156944;23;20414;-88
2021/05/26 08:43:02;;;;;;;8.80;4.13;;;14.70;99.90;;;-143.32;80.34;53252.97;6156999;23;20763;-90
2021/05/26 08:45:29;;;;;;;4.80;3.63;;;15.00;99.90;;;-143.32;78.35;53230.75;6157123;23;20474;-88
2021/05/26 08:47:59;;;;;;;5.97;3.87;;;15.40;99.90;;;-143.32;74.24;53250.94;6156643;23;20407;-89
2021/05/26 08:53:13;;;;;;;4.90;3.07;;;16.20;1.00;;;-143.32;71.91;53291.34;6177332;23;20442;-94
2021/05/26 08:55:40;;;;;;;4.63;3.30;;;16.60;1.00;;;-143.32;74.57;53333.75;6169273;23;20398;-93
2021/05/26 08:58:08;;;;;;;5.50;3.50;;;15.60;1.00;;;-143.32;73.80;53283.25;6158564;23;20494;-91
2021/05/26 09:00:35;;;;;;;5.60;3.30;;;15.90;1.00;;;-143.32;71.68;53240.84;6159611;23;20414;-95
2021/05/26 09:03:05;;;;;;;5.30;2.77;;;16.30;1.00;;;-143.32;69.42;53250.94;6158219;23;20409;-90
2021/05/26 09:05:33;;;;;;;3.13;2.63;;;16.70;99.90;;;-143.32;72.69;53273.16;6157759;23;20438;-94
2021/05/26 09:08:19;;;;;;;5.30;3.10;;;16.50;1.00;;;-143.32;73.00;53422.63;6158416;23;20672;-93
2021/05/26 09:10:48;;;;;;;4.60;2.50;;;15.70;99.90;;;-143.32;73.43;53398.38;6153706;23;20414;-93
2021/05/26 09:17:10;;;;;;;3.80;2.27;;;15.40;1.00;;;-143.32;72.83;53426.66;6157889;23;20370;-93
2021/05/26 09:19:37;;;;;;;7.50;1.83;;;15.30;1.00;;;-143.32;71.85;53364.03;6159576;23;20395;-92
2021/05/26 09:22:10;;;;;;;6.30;2.83;;;15.70;1.00;;;-143.32;69.89;53313.56;6162289;23;20430;-94
2021/05/26 09:28:39;;;;;;;7.63;2.40;;;17.00;99.90;;;-143.32;61.93;53329.72;6165719;23;20363;-95
2021/05/26 09:31:09;;;;;;;3.93;2.40;;;17.50;1.00;;;-143.32;61.87;53396.34;6154882;23;20408;-94
2021/05/26 09:33:41;;;;;;;3.47;2.63;;;17.30;1.00;;;-143.32;62.53;53370.09;6157682;23;20474;-90
2021/05/26 09:36:22;;;;;;;4.70;2.27;;;17.30;1.00;;;-143.32;65.14;53497.34;6161743;23;20787;-92
2021/05/26 09:38:58;;;;;;;5.13;2.40;;;16.70;1.00;;;-143.32;66.32;53493.31;6156124;23;20398;-91
2021/05/26 09:41:34;;;;;;;5.70;2.30;;;16.30;1.00;;;-143.32;64.89;53400.41;6157671;23;20426;-91
2021/05/26 09:44:09;;;;;;;4.43;2.73;;;16.80;84.80;;;-143.32;64.45;53242.88;6158446;23;20917;-89
2021/05/26 09:46:37;;;;;;;5.50;2.50;;;17.50;25.40;;;-143.32;60.73;53271.13;6155961;23;20445;-90
2021/05/26 09:49:20;;;;;;;4.60;2.30;;;17.90;1.00;;;-143.32;60.93;53325.66;6155775;23;20438;-90
2021/05/26 09:55:31;;;;;;;6.80;2.43;;;17.10;1.00;;;-143.32;64.23;53418.56;6158121;23;20881;-91
2021/05/26 09:57:59;;;;;;;4.87;2.17;;;16.80;1.00;;;-143.32;64.82;53477.16;6163852;23;20387;-94
2021/05/26 10:00:28;;;;;;;3.83;1.70;;;16.50;1.00;;;-143.32;65.81;53503.41;6165674;23;20415;-92
2021/05/26 10:03:32;;;;;;;4.80;2.17;;;16.20;29.20;;;-143.32;65.78;53469.06;6174008;23;20380;-94
2021/05/26 10:09:43;;;;;;;3.47;1.90;;;16.20;1.00;;;-143.32;64.18;53547.84;6204644;23;20444;-93
2021/05/26 10:12:16;;;;;;;8.97;1.70;;;16.00;1.00;;;-143.32;65.02;53539.75;6202343;23;20502;-92
2021/05/26 10:14:47;;;;;;;4.53;1.83;;;15.90;1.00;;;-143.32;65.64;53507.44;6207924;23;20526;-93
2021/05/26 10:17:20;;;;;;;4.03;2.23;;;16.10;73.90;;;-143.32;64.48;53642.78;6201624;23;20861;-94
2021/05/26 10:19:53;;;;;;;4.83;2.10;;;15.80;1.00;;;-143.32;65.49;53582.19;6203368;23;20416;-93
2021/05/26 10:22:20;;;;;;;4.10;2.30;;;15.60;1.00;;;-143.32;64.47;53594.28;6197849;23;20440;-87
2021/05/26 10:24:50;;;;;;;5.83;2.87;;;15.70;1.00;;;-143.32;65.98;53543.81;6185928;23;20406;-88
2021/05/26 10:27:33;;;;;;;4.23;2.20;;;15.90;86.60;;;-143.32;64.01;53600.34;6185682;23;20449;-87
2021/05/26 10:30:08;;;;;;;4.33;2.20;;;15.80;1.00;;;-143.32;66.64;53604.41;6185285;23;20473;-86
2021/05/26 10:32:55;;;;;;;2.77;2.10;;;15.60;50.60;;;-143.32;65.17;53634.69;6185333;23;20725;-88
2021/05/26 10:35:24;;;;;;;3.47;1.93;;;15.50;1.00;;;-143.32;66.16;53537.75;6184723;23;20398;-90
2021/05/26 10:38:04;;;;;;;4.43;2.77;;;15.80;99.90;;;-143.32;63.67;53572.09;6185040;23;20420;-86
2021/05/26 10:40:38;;;;;;;5.60;2.27;;;16.00;1.00;;;-143.32;64.53;53606.41;6186088;23;20401;-87
2021/05/26 10:43:33;;;;;;;4.90;2.80;;;15.90;1.00;;;-143.32;66.19;53539.75;6186822;23;20465;-87
2021/05/26 10:46:02;;;;;;;4.33;2.50;;;16.00;76.60;;;-143.32;66.59;53513.50;6186170;23;20979;-86
2021/05/26 10:48:53;;;;;;;9.30;2.97;;;16.20;99.90;;;-143.32;64.88;53515.53;6186179;23;20401;-86
2021/05/26 10:51:20;;;;;;;3.03;2.63;;;16.20;45.40;;;-143.32;62.95;53509.47;6187251;23;20721;-89
2021/05/26 10:53:47;;;;;;;2.80;2.40;;;16.40;1.00;;;-143.32;63.67;53511.50;6187658;23;20453;-89
2021/05/26 10:56:36;;;;;;;4.73;2.30;;;16.50;1.00;;;-143.32;63.88;53479.16;6188543;23;20729;-89
2021/05/26 10:59:12;;;;;;;5.43;2.23;;;16.50;1.00;;;-143.32;65.53;53511.50;6179455;23;20722;-92
2021/05/26 11:02:08;;;;;;;9.00;2.37;;;16.30;38.10;;;-143.32;66.24;53499.38;6193873;23;20432;-89
2021/05/26 11:04:36;;;;;;;5.00;2.43;;;16.30;99.90;;;-143.32;65.53;53475.13;6179062;23;20733;-87
2021/05/26 11:07:29;;;;;;;4.60;3.00;;;16.30;99.90;;;-143.32;65.44;53450.88;6187003;23;20410;-89
2021/05/26 11:10:00;;;;;;;7.40;2.80;;;16.50;99.90;;;-143.32;63.58;53481.19;6186936;23;20700;-88
2021/05/26 11:12:27;;;;;;;2.73;2.00;;;16.70;1.00;;;-143.32;63.68;53519.56;6187155;23;20706;-87
2021/05/26 11:14:55;;;;;;;2.93;2.00;;;16.60;1.00;;;-143.32;63.59;53533.69;6187462;23;20805;-90
2021/05/26 11:17:40;;;;;;;4.07;1.73;;;16.50;1.00;;;-143.32;64.41;53539.75;6186776;23;20409;-88
2021/05/26 11:20:20;;;;;;;5.93;2.50;;;16.40;1.00;;;-143.32;65.21;53537.75;6187456;23;20742;-87
2021/05/26 11:22:47;;;;;;;4.57;2.33;;;16.40;7.00;;;-143.32;64.63;53561.97;6187443;23;20702;-89
2021/05/26 11:25:16;;;;;;;2.37;2.10;;;16.20;1.00;;;-143.32;65.36;53561.97;6187012;23;20429;-89
2021/05/26 11:27:55;;;;;;;3.70;2.17;;;16.20;29.90;;;-143.32;66.14;53523.59;6187146;23;20410;-88
2021/05/26 11:30:35;;;;;;;7.60;2.10;;;16.20;99.90;;;-143.32;64.66;53551.88;6186841;23;20442;-90
2021/05/26 11:33:11;;;;;;;3.73;2.20;;;16.40;18.50;;;-143.32;65.84;53483.22;6187400;23;20412;-90
2021/05/26 11:35:48;;;;;;;2.73;2.00;;;16.50;99.90;;;-143.32;64.01;53458.97;6187072;23;20491;-88
2021/05/26 11:38:26;;;;;;;4.30;2.30;;;16.90;2.20;;;-143.32;62.29;53463.00;6186811;23;20433;-88
2021/05/26 11:40:54;;;;;;;3.57;1.70;;;17.10;1.00;;;-143.32;64.01;53549.88;6186183;23;20456;-91
2021/05/26 11:43:23;;;;;;;3.43;1.80;;;16.70;1.00;;;-143.32;63.07;53525.63;6186804;23;20437;-89
2021/05/26 11:46:04;;;;;;;4.03;2.00;;;16.50;1.00;;;-143.32;64.50;53656.91;6186481;23;20402;-88
2021/05/26 11:48:31;;;;;;;6.40;2.17;;;16.10;1.00;;;-143.32;67.10;53590.25;6187277;23;20390;-89
2021/05/26 11:50:58;;;;;;;4.00;1.90;;;15.80;99.90;;;-143.32;67.52;53533.69;6186735;23;20406;-89
2021/05/26 11:53:26;;;;;;;2.60;2.00;;;15.90;99.90;;;-143.32;67.41;53545.81;6186670;23;20952;-88
2021/05/26 11:55:59;;;;;;;5.33;1.77;;;15.80;99.90;;;-143.32;67.34;53551.88;6187548;23;20406;-90
2021/05/26 11:58:36;;;;;;;5.73;2.73;;;16.10;99.90;;;-143.32;65.88;53499.38;6186913;23;20395;-92
2021/05/26 12:01:09;;;;;;;2.80;1.90;;;16.50;99.90;;;-143.32;64.42;53493.31;6186430;23;20401;-89
2021/05/26 12:03:37;;;;;;;7.50;1.77;;;16.60;85.70;;;-143.32;62.96;53535.72;6187002;23;20466;-89
2021/05/26 12:06:04;;;;;;;3.10;2.07;;;16.80;1.00;;;-143.32;62.50;53469.06;6186909;23;20417;-88
2021/05/26 12:08:33;;;;;;;4.23;2.07;;;17.10;1.00;;;-143.32;62.89;53481.19;6186619;23;20978;-90
2021/05/26 12:11:03;;;;;;;3.87;2.03;;;17.00;1.00;;;-143.32;64.62;53503.41;6186952;23;20402;-89
2021/05/26 12:13:32;;;;;;;6.17;2.40;;;16.80;1.00;;;-143.32;66.26;53479.16;6187049;23;20445;-89
2021/05/26 12:16:02;;;;;;;2.47;1.70;;;16.60;99.90;;;-143.32;67.37;53491.28;6186974;23;20468;-87
2021/05/26 12:18:29;;;;;;;7.53;2.70;;;16.50;99.90;;;-143.32;68.01;53503.41;6187832;23;20395;-88
2021/05/26 12:21:07;;;;;;;4.80;2.23;;;16.40;99.90;;;-143.32;67.97;53495.31;6186665;23;20413;-90
2021/05/26 12:23:36;;;;;;;5.37;2.60;;;16.40;99.90;;;-143.32;67.42;53477.16;6187862;23;20421;-91
2021/05/26 12:26:22;;;;;;;4.57;4.00;;;16.50;99.90;;;-143.32;67.40;53461.00;6186546;23;20885;-89
2021/05/26 12:28:49;;;;;;;3.73;2.60;;;16.70;99.90;;;-143.32;66.37;53529.66;6186676;23;20394;-90
2021/05/26 12:31:18;;;;;;;5.90;2.20;;;16.60;99.90;;;-143.32;67.95;53475.13;6186508;23;20405;-88
2021/05/26 12:33:46;;;;;;;3.70;2.30;;;16.40;99.90;;;-143.32;65.59;53503.41;6186305;23;20508;-89
2021/05/26 12:36:12;;;;;;;9.53;2.60;;;16.50;99.90;;;-143.32;64.23;53511.50;6186665;23;20725;-89
2021/05/26 12:38:57;;;;;;;6.23;2.40;;;16.70;99.90;;;-143.32;64.22;53507.44;6186120;23;20420;-89
2021/05/26 12:41:30;;;;;;;8.20;2.90;;;16.80;99.90;;;-143.32;62.99;53491.28;6186567;23;20398;-89
2021/05/26 12:43:59;;;;;;;6.23;2.27;;;16.90;1.00;;;-143.32;61.76;53521.59;6185980;23;20476;-90
2021/05/26 12:46:43;;;;;;;3.60;2.20;;;17.00;1.00;;;-143.32;62.47;53541.78;6185900;23;20406;-88
2021/05/26 12:49:43;;;;;;;5.27;2.57;;;16.90;1.00;;;-143.32;60.80;53564.00;6186017;23;20464;-90
2021/05/26 12:52:11;;;;;;;4.87;2.30;;;16.90;1.00;;;-143.32;61.49;53545.81;6187002;23;20434;-88
2021/05/26 12:54:46;;;;;;;9.13;3.23;;;16.80;1.00;;;-143.32;61.18;53513.50;6186453;23;20549;-88
2021/05/26 12:57:16;;;;;;;5.10;2.10;;;17.00;1.00;;;-143.32;59.30;53517.53;6186363;23;20397;-88
2021/05/26 12:59:44;;;;;;;5.07;2.30;;;17.30;1.00;;;-143.32;54.77;53561.97;6186838;23;20750;-88
2021/05/26 13:02:14;;;;;;;5.53;1.93;;;17.50;99.90;;;-143.32;54.92;53471.09;6186563;23;20441;-90
2021/05/26 13:04:47;;;;;;;5.17;2.17;;;17.90;99.90;;;-143.32;50.58;53499.38;6186580;23;20406;-90
2021/05/26 13:07:28;;;;;;;4.10;2.30;;;18.20;99.90;;;-143.32;51.78;53485.22;6186807;23;20414;-87
2021/05/26 13:09:57;;;;;;;5.40;2.23;;;18.10;99.90;;;-143.32;55.06;53559.97;6187111;23;20402;-88
2021/05/26 13:12:27;;;;;;;4.73;2.90;;;17.80;99.90;;;-143.32;53.17;53588.25;6186308;23;20430;-87
2021/05/26 13:14:54;;;;;;;7.60;2.90;;;17.70;99.90;;;-143.32;54.95;53584.19;6186648;23;20441;-90
2021/05/26 13:17:27;;;;;;;9.00;3.20;;;17.50;99.90;;;-143.32;57.84;53592.28;6186125;23;20876;-89
2021/05/26 13:19:55;;;;;;;6.73;3.60;;;17.10;99.90;;;-143.32;59.26;53628.63;6186377;23;20398;-89
2021/05/26 13:22:22;;;;;;;5.60;2.73;;;16.70;99.90;;;-143.32;60.88;53600.34;6185961;23;20475;-89
2021/05/26 13:24:48;;;;;;;6.77;3.17;;;16.70;1.00;;;-143.32;60.38;53602.38;6186093;23;20408;-90
2021/05/26 13:27:15;;;;;;;6.80;3.80;;;16.60;1.00;;;-143.32;60.74;53592.28;6186145;23;20421;-89
2021/05/26 13:29:43;;;;;;;8.00;4.20;;;16.70;1.00;;;-143.32;61.15;53620.56;6186625;23;20734;-90
2021/05/26 13:32:10;;;;;;;6.90;3.70;;;16.70;1.00;;;-143.32;61.01;53632.69;6186454;23;20406;-89
2021/05/26 13:34:36;;;;;;;8.63;3.80;;;16.60;1.00;;;-143.32;64.33;53669.03;6186030;23;20453;-90
2021/05/26 13:37:03;;;;;;;5.40;3.67;;;16.10;1.00;;;-143.32;68.63;53658.94;6185818;23;20398;-90
2021/05/26 13:39:30;;;;;;;9.17;4.47;;;15.70;99.90;;;-143.32;70.30;53687.22;6186078;23;20418;-88
2021/05/26 13:41:56;;;;;;;6.60;4.37;;;15.10;1.00;;;-143.32;75.13;53693.28;6186613;23;20428;-90
2021/05/26 13:44:23;;;;;;;12.33;6.00;;;14.70;99.90;;;-143.32;89.31;53543.81;6185831;23;20453;-87
2021/05/26 13:46:51;;;;;;;11.43;6.80;;;14.30;99.90;;;-143.32;92.41;53604.41;6185473;23;20429;-89
2021/05/26 13:49:17;;;;;;;12.53;7.93;;;13.70;99.90;;;-143.32;96.98;53586.22;6186166;23;20406;-87
2021/05/26 13:51:46;;;;;;;16.03;9.43;;;13.10;1.00;;;-143.32;100.00;53519.56;6186121;23;20433;-91
2021/05/26 13:54:12;;;;;;;10.13;7.70;;;12.60;99.90;;;-143.32;100.00;53549.88;6185554;23;20446;-89
2021/05/26 14:05:06;;;;;;;17.93;4.70;;;11.50;1.00;;;-143.32;100.00;53557.94;6186326;23;20429;-91
2021/05/26 14:08:00;;;;;;;7.00;3.43;;;11.20;1.00;;;-143.32;100.00;53527.66;6178875;23;20417;-91
2021/05/26 14:18:13;;;;;;;7.07;3.20;;;10.70;72.10;;;-143.32;100.00;53404.44;6084101;23;20417;-88
2021/05/26 14:21:09;;;;;;;3.90;3.37;;;11.00;99.90;;;-143.32;100.00;53275.19;6187796;23;20414;-90
2021/05/26 14:43:48;;;;;;;8.50;3.67;;;13.80;99.90;;;-143.32;100.00;53139.88;5933050;24;20475;-91
2021/05/26 14:47:03;;;;;;;;;;;;;;;;;;;;;
2021/05/26 14:57:19;;;;;;;11.83;5.23;;;13.10;99.90;;;-143.32;100.00;53279.22;5987143;23;20440;-93
2021/05/26 15:14:37;;;;;;;8.40;5.03;;;13.20;99.90;;;-143.32;100.00;53216.59;6157604;23;20452;-92
2021/05/26 15:22:04;;;;;;;13.63;8.20;;;13.60;1.00;;;-143.32;98.26;53218.63;6188748;23;20756;-94
2021/05/26 15:25:08;;;;;;;6.50;4.70;;;13.80;1.00;;;-143.32;98.43;53220.66;6193977;23;20406;-93
2021/05/26 15:38:12;;;;;;;6.03;3.17;;;14.00;1.00;;;-143.32;94.87;53295.38;6166692;23;20401;-93
2021/05/26 15:40:40;;;;;;;5.43;2.40;;;14.00;1.00;;;-143.32;94.90;53283.25;6179552;23;20405;-93
2021/05/26 15:43:26;;;;;;;;;;;;;;;;;;;;;
2021/05/26 15:46:08;;;;;;;9.70;4.57;;;13.90;99.90;;;-143.32;93.46;53333.75;6183411;23;20452;-89
2021/05/26 15:48:36;;;;;;;3.97;3.10;;;13.80;99.90;;;-143.32;93.62;53368.09;6194594;23;20473;-91
2021/05/26 15:54:44;;;;;;;4.10;3.70;;;13.60;1.00;;;-143.32;95.12;53351.94;6193697;23;20445;-91
2021/05/26 15:57:26;;;;;;;6.43;2.60;;;13.70;1.00;;;-143.32;94.77;53315.56;6193186;23;20430;-89
2021/05/26 15:59:55;;;;;;;5.83;2.67;;;13.80;1.00;;;-143.32;94.67;53285.28;6194365;23;20382;-88
2021/05/26 16:02:58;;;;;;;3.47;2.27;;;14.00;1.00;;;-143.32;94.22;53269.13;6192557;23;20797;-90
2021/05/26 16:05:39;;;;;;;2.83;2.57;;;14.10;1.00;;;-143.32;93.98;53265.09;6192691;23;20390;-89
2021/05/26 16:08:10;;;;;;;2.77;2.20;;;14.30;1.00;;;-143.32;93.86;53263.06;6194033;23;20433;-91